SondeTracker

Meteorological Radiosondes Database

Operations

Sounding was ended - last measurement: 2022-12-06 07:06:43z

MAP
About Radiosonde

Number: T2720113

Launch Site: Lamont [OK] (US)

Type: RS41

AUX: NO

Frequency: 400.501 MHz

Max Speed: 206 km/h at 12430 m

Average Speed: 107.29 km/h

Max Altitude: 27201 m

Average Ascent Speed: 5.44 m/s

Average Descent Speed: 40.50 m/s

Status: UNKNOWN

Status Changes
Launch Site Type AUX Frequency Status Finder Landing Point Description Changes made by
APRS Statistics

Received Frames: 101

First Frame [UTC]: 2022-12-06 06:13:58z

Last Frame [UTC]: 2022-12-06 07:06:43z

Receivers: KD0ZJV-10

Flight Time: 00:52:45 h

Distance From First Measurement: 91.42 km

Nearest City: Bartlesville [OK] (US) [11.81 km]

Nearest Hunter: KG5NP [84.93 km]

Ground Altitude: 256 m

Distance from QTH: 0.00 km

APRS Data
Receiver Number Date/Time [UTC] φ λ Course [°] Speed [km/h] Altitude [m] Description
KD0ZJV-10T27201132022-12-06 07:06:4336.7788-95.82418720212134Clb=-31.1m/s t=-59.2C h=14.8% p=197.9hPa 400.501 MHz Type=RS41-SGP Radiosonde
KD0ZJV-10T27201132022-12-06 07:06:1236.7787-95.82798920012317Clb=-30.8m/s t=-60.6C h=14.6% p=192.2hPa 400.501 MHz Type=RS41-SGP Radiosonde
KD0ZJV-10T27201132022-12-06 07:05:4136.7772-95.84577718013307Clb=-33.2m/s t=-61.9C h=6.5% p=164.2hPa 400.501 MHz Type=RS41-SGP Radiosonde
KD0ZJV-10T27201132022-12-06 07:05:1036.7744-95.86257817614364Clb=-35.7m/s t=-65.9C h=5.2% p=138.4hPa 400.501 MHz Type=RS41-SGP Radiosonde
KD0ZJV-10T27201132022-12-06 07:04:3936.7715-95.88028417415570Clb=-38.3m/s t=-71.9C h=5.7% p=113.5hPa 400.501 MHz Type=RS41-SGP Radiosonde
KD0ZJV-10T27201132022-12-06 07:04:0836.772-95.8969515416791Clb=-42.2m/s t=-72.5C h=5.4% p=92.5hPa 400.501 MHz Type=RS41-SGP Radiosonde
KD0ZJV-10T27201132022-12-06 07:03:3936.7728-95.9058786118065Clb=-46.8m/s t=-66.6C h=3.0% p=75.0hPa 400.501 MHz Type=RS41-SGP Radiosonde
KD0ZJV-10T27201132022-12-06 07:03:0636.7716-95.9131986919734Clb=-52.9m/s t=-68.3C h=3.2% p=57.2hPa 400.501 MHz Type=RS41-SGP Radiosonde
KD0ZJV-10T27201132022-12-06 07:02:3536.7714-95.9192697021402Clb=-56.8m/s t=-61.6C h=1.9% p=43.5hPa 400.501 MHz Type=RS41-SGP Radiosonde
KD0ZJV-10T27201132022-12-06 07:02:0436.7723-95.924825223146Clb=-56.6m/s t=-62.6C h=2.2% p=32.8hPa 400.501 MHz Type=RS41-SGP Radiosonde
KD0ZJV-10T27201132022-12-06 07:01:3336.7721-95.9285827824778Clb=-57.5m/s t=-58.8C h=2.0% p=25.4hPa 400.501 MHz Type=RS41-SGP Radiosonde
KD0ZJV-10T27201132022-12-06 07:00:3136.7713-95.9459848327201Clb=6.7m/s t=-54.8C h=1.3% p=17.0hPa 400.501 MHz Type=RS41-SGP Radiosonde
KD0ZJV-10T27201132022-12-06 07:00:0036.7714-95.9526997627033Clb=5.7m/s t=-55.6C h=1.2% p=17.4hPa 400.501 MHz Type=RS41-SGP Radiosonde
KD0ZJV-10T27201132022-12-06 06:59:2936.7716-95.9584876926880Clb=6.6m/s t=-56.4C h=1.5% p=17.9hPa 400.501 MHz Type=RS41-SGP Radiosonde
KD0ZJV-10T27201132022-12-06 06:58:5836.7712-95.9658796326678Clb=4.5m/s t=-56.1C h=1.4% p=18.5hPa 400.501 MHz Type=RS41-SGP Radiosonde
KD0ZJV-10T27201132022-12-06 06:58:2636.7715-95.9715936726536Clb=5.7m/s t=-56.0C h=1.3% p=18.9hPa 400.501 MHz Type=RS41-SGP Radiosonde
KD0ZJV-10T27201132022-12-06 06:57:5536.7725-95.9779975926377Clb=4.1m/s t=-56.8C h=1.4% p=19.3hPa 400.501 MHz Type=RS41-SGP Radiosonde
KD0ZJV-10T27201132022-12-06 06:57:2536.7727-95.9853848726221Clb=5.8m/s t=-57.0C h=1.3% p=19.8hPa 400.501 MHz Type=RS41-SGP Radiosonde
KD0ZJV-10T27201132022-12-06 06:56:5336.7717-95.9927757226051Clb=6.7m/s t=-58.1C h=1.4% p=20.4hPa 400.501 MHz Type=RS41-SGP Radiosonde
KD0ZJV-10T27201132022-12-06 06:56:2236.7704-95.9992776325857Clb=5.4m/s t=-58.4C h=1.5% p=21.0hPa 400.501 MHz Type=RS41-SGP Radiosonde
KD0ZJV-10T27201132022-12-06 06:55:5136.7697-96.005856125654Clb=7.8m/s t=-58.1C h=1.5% p=21.7hPa 400.501 MHz Type=RS41-SGP Radiosonde
KD0ZJV-10T27201132022-12-06 06:55:2036.7688-96.0113737025442Clb=7.3m/s t=-57.7C h=1.4% p=22.4hPa 400.501 MHz Type=RS41-SGP Radiosonde
KD0ZJV-10T27201132022-12-06 06:54:4936.7672-96.0176786325235Clb=6.2m/s t=-57.4C h=1.5% p=23.1hPa 400.501 MHz Type=RS41-SGP Radiosonde
KD0ZJV-10T27201132022-12-06 06:54:1836.7656-96.0235666925047Clb=5.8m/s t=-56.8C h=1.4% p=23.8hPa 400.501 MHz Type=RS41-SGP Radiosonde
KD0ZJV-10T27201132022-12-06 06:53:4736.7639-96.0299796124880Clb=5.5m/s t=-56.7C h=1.3% p=24.4hPa 400.501 MHz Type=RS41-SGP Radiosonde
KD0ZJV-10T27201132022-12-06 06:53:1636.7633-96.0369858724733Clb=5.3m/s t=-59.0C h=1.5% p=25.0hPa 400.501 MHz Type=RS41-SGP Radiosonde
KD0ZJV-10T27201132022-12-06 06:52:4536.7628-96.0448846524589Clb=4.7m/s t=-59.4C h=1.6% p=25.6hPa 400.501 MHz Type=RS41-SGP Radiosonde
KD0ZJV-10T27201132022-12-06 06:52:1436.7622-96.0508824624416Clb=5.2m/s t=-59.3C h=1.5% p=26.3hPa 400.501 MHz Type=RS41-SGP Radiosonde
KD0ZJV-10T27201132022-12-06 06:51:4336.7623-96.0544773524253Clb=5.0m/s t=-60.2C h=1.6% p=27.0hPa 400.501 MHz Type=RS41-SGP Radiosonde
KD0ZJV-10T27201132022-12-06 06:51:1236.7624-96.05721042424065Clb=5.4m/s t=-60.3C h=1.6% p=27.8hPa 400.501 MHz Type=RS41-SGP Radiosonde
KD0ZJV-10T27201132022-12-06 06:50:4136.7632-96.0599973723888Clb=6.1m/s t=-60.2C h=1.6% p=28.6hPa 400.501 MHz Type=RS41-SGP Radiosonde
KD0ZJV-10T27201132022-12-06 06:50:1036.7639-96.0637945023708Clb=5.1m/s t=-60.5C h=1.7% p=29.5hPa 400.501 MHz Type=RS41-SGP Radiosonde
KD0ZJV-10T27201132022-12-06 06:49:3836.7646-96.0687954823530Clb=4.6m/s t=-60.3C h=1.5% p=30.3hPa 400.501 MHz Type=RS41-SGP Radiosonde
KD0ZJV-10T27201132022-12-06 06:49:0736.7646-96.0751815923362Clb=4.8m/s t=-63.0C h=1.8% p=31.1hPa 400.501 MHz Type=RS41-SGP Radiosonde
KD0ZJV-10T27201132022-12-06 06:48:3636.764-96.0808916523193Clb=5.1m/s t=-64.2C h=2.0% p=32.0hPa 400.501 MHz Type=RS41-SGP Radiosonde
KD0ZJV-10T27201132022-12-06 06:48:0536.764-96.0851073923026Clb=5.6m/s t=-64.4C h=2.2% p=32.9hPa 400.501 MHz Type=RS41-SGP Radiosonde
KD0ZJV-10T27201132022-12-06 06:47:3436.7652-96.08871194322845Clb=6.5m/s t=-63.2C h=2.0% p=33.8hPa 400.501 MHz Type=RS41-SGP Radiosonde
KD0ZJV-10T27201132022-12-06 06:47:0336.767-96.09271185722663Clb=5.9m/s t=-61.8C h=1.8% p=34.9hPa 400.501 MHz Type=RS41-SGP Radiosonde
KD0ZJV-10T27201132022-12-06 06:46:3236.7697-96.09811285422470Clb=4.4m/s t=-62.5C h=2.0% p=35.9hPa 400.501 MHz Type=RS41-SGP Radiosonde
KD0ZJV-10T27201132022-12-06 06:46:0136.7724-96.10321167222306Clb=6.4m/s t=-62.0C h=1.9% p=36.9hPa 400.501 MHz Type=RS41-SGP Radiosonde
KD0ZJV-10T27201132022-12-06 06:45:3036.7741-96.10861016322145Clb=4.0m/s t=-63.0C h=2.0% p=37.8hPa 400.501 MHz Type=RS41-SGP Radiosonde
KD0ZJV-10T27201132022-12-06 06:44:5936.774-96.1157847221956Clb=6.8m/s t=-64.9C h=2.2% p=39.0hPa 400.501 MHz Type=RS41-SGP Radiosonde
KD0ZJV-10T27201132022-12-06 06:44:2836.7728-96.1214627821797Clb=6.3m/s t=-65.3C h=2.3% p=40.0hPa 400.501 MHz Type=RS41-SGP Radiosonde
KD0ZJV-10T27201132022-12-06 06:43:5736.77-96.1278635921606Clb=5.1m/s t=-64.1C h=2.2% p=41.3hPa 400.501 MHz Type=RS41-SGP Radiosonde
KD0ZJV-10T27201132022-12-06 06:43:2636.7682-96.1324685221436Clb=7.0m/s t=-63.0C h=2.1% p=42.5hPa 400.501 MHz Type=RS41-SGP Radiosonde
KD0ZJV-10T27201132022-12-06 06:42:5536.7673-96.13671034321238Clb=5.6m/s t=-63.6C h=2.1% p=43.9hPa 400.501 MHz Type=RS41-SGP Radiosonde
KD0ZJV-10T27201132022-12-06 06:42:2436.7665-96.1404873521036Clb=5.2m/s t=-64.5C h=2.2% p=45.3hPa 400.501 MHz Type=RS41-SGP Radiosonde
KD0ZJV-10T27201132022-12-06 06:41:5336.7672-96.1454936120839Clb=8.0m/s t=-64.0C h=2.4% p=46.8hPa 400.501 MHz Type=RS41-SGP Radiosonde
KD0ZJV-10T27201132022-12-06 06:41:2136.7677-96.1519906920640Clb=6.1m/s t=-63.1C h=2.3% p=48.3hPa 400.501 MHz Type=RS41-SGP Radiosonde
KD0ZJV-10T27201132022-12-06 06:40:5036.7674-96.1591878720450Clb=5.2m/s t=-63.9C h=2.6% p=49.8hPa 400.501 MHz Type=RS41-SGP Radiosonde
KD0ZJV-10T27201132022-12-06 06:40:1936.7675-96.1657946120268Clb=4.9m/s t=-63.3C h=2.4% p=51.4hPa 400.501 MHz Type=RS41-SGP Radiosonde
KD0ZJV-10T27201132022-12-06 06:39:4836.7675-96.1714905420092Clb=6.5m/s t=-67.3C h=3.3% p=52.8hPa 400.501 MHz Type=RS41-SGP Radiosonde
KD0ZJV-10T27201132022-12-06 06:39:1736.7686-96.17681106319923Clb=5.4m/s t=-67.3C h=3.3% p=54.3hPa 400.501 MHz Type=RS41-SGP Radiosonde
KD0ZJV-10T27201132022-12-06 06:38:4636.7692-96.1829917219755Clb=6.1m/s t=-68.1C h=3.4% p=55.8hPa 400.501 MHz Type=RS41-SGP Radiosonde
KD0ZJV-10T27201132022-12-06 06:38:1536.7699-96.1913968019578Clb=5.2m/s t=-67.5C h=3.4% p=57.5hPa 400.501 MHz Type=RS41-SGP Radiosonde
KD0ZJV-10T27201132022-12-06 06:37:4436.77-96.1986847619424Clb=5.1m/s t=-66.3C h=3.3% p=58.9hPa 400.501 MHz Type=RS41-SGP Radiosonde
KD0ZJV-10T27201132022-12-06 06:37:1336.7696-96.2062756919251Clb=5.0m/s t=-66.5C h=3.3% p=60.6hPa 400.501 MHz Type=RS41-SGP Radiosonde
KD0ZJV-10T27201132022-12-06 06:36:4236.7679-96.2136718719068Clb=5.7m/s t=-66.7C h=3.5% p=62.5hPa 400.501 MHz Type=RS41-SGP Radiosonde
KD0ZJV-10T27201132022-12-06 06:36:1136.7664-96.221796918892Clb=4.6m/s t=-66.2C h=3.7% p=64.3hPa 400.501 MHz Type=RS41-SGP Radiosonde
KD0ZJV-10T27201132022-12-06 06:35:4036.7651-96.2272777218734Clb=6.6m/s t=-66.0C h=3.9% p=66.0hPa 400.501 MHz Type=RS41-SGP Radiosonde
KD0ZJV-10T27201132022-12-06 06:35:0936.7634-96.2337775618559Clb=6.4m/s t=-67.1C h=4.4% p=68.0hPa 400.501 MHz Type=RS41-SGP Radiosonde
KD0ZJV-10T27201132022-12-06 06:34:3836.7624-96.2395797018393Clb=4.6m/s t=-67.3C h=4.8% p=69.9hPa 400.501 MHz Type=RS41-SGP Radiosonde
KD0ZJV-10T27201132022-12-06 06:34:0736.7612-96.246995718223Clb=9.2m/s t=-68.5C h=5.5% p=71.8hPa 400.501 MHz Type=RS41-SGP Radiosonde
KD0ZJV-10T27201132022-12-06 06:33:3636.7617-96.2521946118039Clb=6.6m/s t=-67.3C h=5.9% p=74.1hPa 400.501 MHz Type=RS41-SGP Radiosonde
KD0ZJV-10T27201132022-12-06 06:33:0436.7622-96.25781006317884Clb=3.8m/s t=-67.4C h=7.0% p=76.1hPa 400.501 MHz Type=RS41-SGP Radiosonde
KD0ZJV-10T27201132022-12-06 06:32:3336.7628-96.26569210417716Clb=3.8m/s t=-71.5C h=8.5% p=78.1hPa 400.501 MHz Type=RS41-SGP Radiosonde
KD0ZJV-10T27201132022-12-06 06:32:0336.7637-96.27819812817562Clb=5.5m/s t=-72.8C h=9.6% p=80.2hPa 400.501 MHz Type=RS41-SGP Radiosonde
KD0ZJV-10T27201132022-12-06 06:31:3136.7648-96.299513117428Clb=5.4m/s t=-71.8C h=9.1% p=82.0hPa 400.501 MHz Type=RS41-SGP Radiosonde
KD0ZJV-10T27201132022-12-06 06:31:0036.7652-96.30618915017266Clb=4.9m/s t=-73.0C h=9.4% p=84.4hPa 400.501 MHz Type=RS41-SGP Radiosonde
KD0ZJV-10T27201132022-12-06 06:30:2936.7655-96.31839314317140Clb=5.0m/s t=-72.7C h=9.7% p=86.2hPa 400.501 MHz Type=RS41-SGP Radiosonde
KD0ZJV-10T27201132022-12-06 06:29:5836.7659-96.33369215416965Clb=6.3m/s t=-72.1C h=8.3% p=88.8hPa 400.501 MHz Type=RS41-SGP Radiosonde
KD0ZJV-10T27201132022-12-06 06:29:2736.7655-96.34788816316802Clb=5.3m/s t=-73.0C h=9.4% p=91.2hPa 400.501 MHz Type=RS41-SGP Radiosonde
KD0ZJV-10T27201132022-12-06 06:28:5636.7654-96.36269015216625Clb=6.0m/s t=-72.0C h=8.8% p=94.0hPa 400.501 MHz Type=RS41-SGP Radiosonde
KD0ZJV-10T27201132022-12-06 06:28:2536.7653-96.37738815616453Clb=4.5m/s t=-71.2C h=8.6% p=96.8hPa 400.501 MHz Type=RS41-SGP Radiosonde
KD0ZJV-10T27201132022-12-06 06:27:5436.765-96.39268716116292Clb=5.4m/s t=-70.7C h=8.8% p=99.4hPa 400.501 MHz Type=RS41-SGP Radiosonde
KD0ZJV-10T27201132022-12-06 06:27:2336.7638-96.40948715716123Clb=6.5m/s t=-70.5C h=8.8% p=102.3hPa 400.501 MHz Type=RS41-SGP Radiosonde
KD0ZJV-10T27201132022-12-06 06:26:5236.7638-96.42259515415996Clb=5.3m/s t=-71.0C h=8.9% p=104.5hPa 400.501 MHz Type=RS41-SGP Radiosonde
KD0ZJV-10T27201132022-12-06 06:26:2136.7646-96.4389216715860Clb=5.0m/s t=-72.0C h=9.1% p=106.9hPa 400.501 MHz Type=RS41-SGP Radiosonde
KD0ZJV-10T27201132022-12-06 06:25:4936.7645-96.45418716115719Clb=3.9m/s t=-72.6C h=9.7% p=109.6hPa 400.501 MHz Type=RS41-SGP Radiosonde
KD0ZJV-10T27201132022-12-06 06:25:1836.7636-96.47058417215570Clb=4.3m/s t=-72.0C h=9.0% p=112.3hPa 400.501 MHz Type=RS41-SGP Radiosonde
KD0ZJV-10T27201132022-12-06 06:24:4736.7614-96.48848017615384Clb=5.7m/s t=-71.6C h=8.7% p=115.9hPa 400.501 MHz Type=RS41-SGP Radiosonde
KD0ZJV-10T27201132022-12-06 06:24:1636.7589-96.5037717015231Clb=5.0m/s t=-70.3C h=7.9% p=119.0hPa 400.501 MHz Type=RS41-SGP Radiosonde
KD0ZJV-10T27201132022-12-06 06:23:4536.7562-96.51887817015053Clb=5.0m/s t=-69.1C h=7.5% p=122.5hPa 400.501 MHz Type=RS41-SGP Radiosonde
KD0ZJV-10T27201132022-12-06 06:23:1436.7537-96.53518017614847Clb=4.1m/s t=-68.0C h=7.0% p=126.8hPa 400.501 MHz Type=RS41-SGP Radiosonde
KD0ZJV-10T27201132022-12-06 06:22:4336.7504-96.55287616914646Clb=5.3m/s t=-66.9C h=6.9% p=131.1hPa 400.501 MHz Type=RS41-SGP Radiosonde
KD0ZJV-10T27201132022-12-06 06:22:1236.7478-96.56818216114467Clb=5.3m/s t=-65.8C h=6.7% p=135.0hPa 400.501 MHz Type=RS41-SGP Radiosonde
KD0ZJV-10T27201132022-12-06 06:21:4136.7455-96.58367717014300Clb=6.9m/s t=-65.4C h=6.8% p=138.7hPa 400.501 MHz Type=RS41-SGP Radiosonde
KD0ZJV-10T27201132022-12-06 06:21:1036.7429-96.59997717214136Clb=5.6m/s t=-64.8C h=6.9% p=142.5hPa 400.501 MHz Type=RS41-SGP Radiosonde
KD0ZJV-10T27201132022-12-06 06:20:4036.7408-96.61638117413973Clb=6.3m/s t=-64.6C h=7.2% p=146.3hPa 400.501 MHz Type=RS41-SGP Radiosonde
KD0ZJV-10T27201132022-12-06 06:20:0836.7378-96.63377617213797Clb=5.2m/s t=-64.4C h=7.5% p=150.5hPa 400.501 MHz Type=RS41-SGP Radiosonde
KD0ZJV-10T27201132022-12-06 06:19:3736.7349-96.64977617613652Clb=5.7m/s t=-63.5C h=7.5% p=154.2hPa 400.501 MHz Type=RS41-SGP Radiosonde
KD0ZJV-10T27201132022-12-06 06:19:0636.7319-96.66597418913507Clb=5.6m/s t=-62.7C h=7.3% p=157.8hPa 400.501 MHz Type=RS41-SGP Radiosonde
KD0ZJV-10T27201132022-12-06 06:18:3636.7289-96.6837517813353Clb=5.9m/s t=-61.7C h=7.6% p=161.7hPa 400.501 MHz Type=RS41-SGP Radiosonde
KD0ZJV-10T27201132022-12-06 06:18:0436.7256-96.69977617813200Clb=6.3m/s t=-61.0C h=8.7% p=165.8hPa 400.501 MHz Type=RS41-SGP Radiosonde
KD0ZJV-10T27201132022-12-06 06:17:3336.7224-96.71917916913024Clb=4.6m/s t=-60.8C h=12.0% p=170.6hPa 400.501 MHz Type=RS41-SGP Radiosonde
KD0ZJV-10T27201132022-12-06 06:17:0136.7203-96.73378118012891Clb=7.0m/s t=-60.6C h=14.4% p=174.2hPa 400.501 MHz Type=RS41-SGP Radiosonde
KD0ZJV-10T27201132022-12-06 06:15:5936.7184-96.77568919812534Clb=5.8m/s t=-61.0C h=-1.0% p=184.4hPa 400.501 MHz Type=RS41-SGP Radiosonde
KD0ZJV-10T27201132022-12-06 06:15:2836.7187-96.78888720612430Clb=4.4m/s t=-60.9C h=-1.0% p=187.4hPa 400.501 MHz Type=RS41-SGP Radiosonde
KD0ZJV-10T27201132022-12-06 06:14:5736.7189-96.80928920612282Clb=4.9m/s t=-60.6C h=-1.0% p=192.0hPa 400.501 MHz Type=RS41-SGP Radiosonde
KD0ZJV-10T27201132022-12-06 06:14:2636.7185-96.83028520012123Clb=5.8m/s t=-59.6C h=-1.0% p=-1.0hPa 400.501 MHz Type=RS41 Radiosonde
KD0ZJV-10T27201132022-12-06 06:13:5836.7176-96.84738420411995Clb=4.2m/s t=-273.0C h=-1.0% p=-1.0hPa 400.501 MHz Type=RS41 Radiosonde